createdAt,value
2023-01-22T00:00:17.441Z,26.92
2023-01-22T00:05:21.045Z,27.98
2023-01-22T00:10:22.803Z,30.23
2023-01-22T00:15:24.486Z,28.13
2023-01-22T00:20:26.640Z,30.43
2023-01-22T00:25:28.529Z,26.38
2023-01-22T00:30:30.375Z,30.90
2023-01-22T00:35:34.485Z,30.88
2023-01-22T00:40:36.250Z,27.33
2023-01-22T00:45:37.999Z,28.73
2023-01-22T00:50:39.866Z,23.87
2023-01-22T00:55:51.030Z,24.50
2023-01-22T01:00:53.238Z,22.30
2023-01-22T01:06:04.088Z,23.73
2023-01-22T01:11:08.959Z,24.50
2023-01-22T01:16:19.585Z,23.58
2023-01-22T01:21:21.360Z,23.30
2023-01-22T01:26:24.292Z,22.77
2023-01-22T01:31:26.306Z,25.75
2023-01-22T01:36:47.139Z,24.88
2023-01-22T01:41:50.408Z,26.17
2023-01-22T01:47:06.006Z,22.10
2023-01-22T01:52:14.662Z,24.52
2023-01-22T01:57:26.480Z,22.75
2023-01-22T02:02:28.213Z,24.87
2023-01-22T02:07:30.166Z,23.60
2023-01-22T02:12:34.029Z,23.02
2023-01-22T02:17:37.890Z,25.08
2023-01-22T02:22:40.345Z,23.87
2023-01-22T02:27:42.010Z,23.55
2023-01-22T02:32:43.868Z,20.50
2023-01-22T02:37:45.607Z,22.20
2023-01-22T02:42:47.292Z,22.47
2023-01-22T02:47:49.374Z,20.77
2023-01-22T02:52:51.039Z,23.05
2023-01-22T02:57:53.815Z,21.52
2023-01-22T03:02:55.641Z,20.87
2023-01-22T03:07:57.405Z,23.20
2023-01-22T03:13:18.120Z,23.88
2023-01-22T03:18:38.657Z,22.23
2023-01-22T03:23:40.526Z,22.35
2023-01-22T03:28:42.582Z,23.63
2023-01-22T03:33:44.480Z,21.65
2023-01-22T03:38:47.122Z,21.90
2023-01-22T03:43:53.646Z,21.67
2023-01-22T03:49:00.131Z,20.58
2023-01-22T03:54:02.311Z,23.00
2023-01-22T03:59:04.738Z,20.30
2023-01-22T04:04:06.704Z,19.48
2023-01-22T04:09:08.518Z,20.30
2023-01-22T04:14:15.710Z,21.08
2023-01-22T04:19:29.775Z,23.35
2023-01-22T04:24:50.027Z,20.40
2023-01-22T04:29:51.822Z,19.07
2023-01-22T04:34:54.378Z,21.88
2023-01-22T04:39:59.885Z,22.33
2023-01-22T04:45:01.864Z,21.83
2023-01-22T04:50:05.582Z,21.63
2023-01-22T04:55:09.645Z,20.27
2023-01-22T05:00:21.270Z,20.15
2023-01-22T05:05:23.201Z,24.30
2023-01-22T05:10:25.648Z,24.10
2023-01-22T05:15:28.394Z,22.77
2023-01-22T05:20:33.278Z,27.13
2023-01-22T05:25:35.198Z,23.42
2023-01-22T05:30:38.087Z,22.55
2023-01-22T05:36:00.536Z,22.95
2023-01-22T05:41:02.434Z,23.05
2023-01-22T05:46:08.175Z,24.42
2023-01-22T05:51:30.647Z,21.17
2023-01-22T05:56:34.000Z,25.75
2023-01-22T06:01:35.896Z,23.52
2023-01-22T06:06:38.289Z,22.85
2023-01-22T06:11:41.203Z,23.80
2023-01-22T06:16:43.367Z,24.48
2023-01-22T06:21:57.018Z,24.95
2023-01-22T06:32:20.332Z,29.27
2023-01-22T06:37:22.966Z,27.33
2023-01-22T06:42:26.179Z,24.15
2023-01-22T06:47:27.989Z,25.57
2023-01-22T06:52:30.263Z,25.55
2023-01-22T06:57:32.110Z,28.97
2023-01-22T07:02:34.539Z,28.30
2023-01-22T07:07:36.262Z,30.73
2023-01-22T07:12:38.335Z,28.37
2023-01-22T07:17:39.968Z,28.00
2023-01-22T07:22:41.630Z,30.83
2023-01-22T07:27:43.946Z,31.23
2023-01-22T07:32:45.843Z,29.98
2023-01-22T07:37:55.272Z,27.97
2023-01-22T07:42:57.138Z,31.25
2023-01-22T07:47:59.873Z,36.22
2023-01-22T07:53:01.859Z,31.17
2023-01-22T07:58:06.075Z,31.63
2023-01-22T08:03:10.436Z,31.98
2023-01-22T08:08:14.822Z,43.97
2023-01-22T08:13:16.517Z,44.95
2023-01-22T08:18:20.416Z,33.40
2023-01-22T08:23:23.216Z,31.23
2023-01-22T08:28:24.967Z,30.03
2023-01-22T08:33:27.403Z,28.77
2023-01-22T08:38:29.154Z,28.80
2023-01-22T08:43:30.882Z,25.83
2023-01-22T08:48:32.570Z,25.60
2023-01-22T08:53:34.217Z,25.43
2023-01-22T08:58:35.866Z,24.80
2023-01-22T09:03:37.762Z,27.57
2023-01-22T09:08:39.427Z,25.70
2023-01-22T09:13:41.154Z,24.70
2023-01-22T09:18:43.015Z,23.97
2023-01-22T09:23:44.692Z,24.17
2023-01-22T09:28:46.401Z,23.57
2023-01-22T09:33:48.076Z,22.17
2023-01-22T09:38:49.876Z,17.57
2023-01-22T09:44:02.041Z,20.70
2023-01-22T09:49:11.649Z,18.38
2023-01-22T09:54:15.518Z,19.27
2023-01-22T09:59:20.744Z,17.35
2023-01-22T10:04:40.248Z,19.80
2023-01-22T10:09:50.441Z,16.92
2023-01-22T10:14:53.064Z,20.10
2023-01-22T10:24:58.477Z,18.27
2023-01-22T10:30:22.254Z,17.10
2023-01-22T10:35:24.299Z,15.40
2023-01-22T10:40:37.947Z,15.45
2023-01-22T10:45:55.069Z,17.77
2023-01-22T10:51:19.483Z,15.40
2023-01-22T10:56:31.951Z,17.80
2023-01-22T11:01:39.451Z,17.10
2023-01-22T11:06:47.195Z,15.48
2023-01-22T11:11:59.801Z,16.55
2023-01-22T11:17:25.016Z,15.98
2023-01-22T11:22:34.009Z,17.33
2023-01-22T11:27:51.844Z,17.70
2023-01-22T11:33:47.377Z,15.77
2023-01-22T11:38:54.532Z,17.40
2023-01-22T11:44:36.823Z,16.33
2023-01-22T11:49:38.450Z,15.77
2023-01-22T11:54:57.803Z,15.77
2023-01-22T12:00:16.856Z,15.77
2023-01-22T12:05:43.497Z,13.85
2023-01-22T12:10:47.973Z,16.10
2023-01-22T12:16:11.118Z,16.23
2023-01-22T12:21:40.411Z,17.05
2023-01-22T12:26:52.235Z,15.93
2023-01-22T12:32:08.813Z,18.25
2023-01-22T12:37:15.889Z,15.35
2023-01-22T12:42:32.357Z,15.65
2023-01-22T12:47:46.363Z,16.50
2023-01-22T12:53:22.034Z,15.73
2023-01-22T12:58:27.177Z,19.20
2023-01-22T13:03:32.050Z,17.67
2023-01-22T13:08:42.383Z,18.52
2023-01-22T13:13:49.379Z,15.30
2023-01-22T13:18:53.582Z,13.77
2023-01-22T13:24:04.848Z,14.20
2023-01-22T13:29:20.003Z,16.30
2023-01-22T13:34:22.490Z,16.08
2023-01-22T13:39:29.689Z,17.17
2023-01-22T13:44:38.976Z,17.10
2023-01-22T13:49:43.081Z,17.73
2023-01-22T13:55:18.936Z,15.55
2023-01-22T14:00:32.913Z,16.13
2023-01-22T14:05:37.557Z,17.33
2023-01-22T14:10:44.090Z,17.27
2023-01-22T14:15:59.578Z,14.52
2023-01-22T14:21:01.598Z,18.40
2023-01-22T14:26:06.530Z,16.25
2023-01-22T14:31:08.408Z,17.00
2023-01-22T14:36:10.216Z,16.30
2023-01-22T14:41:12.018Z,16.83
2023-01-22T14:46:13.739Z,17.35
2023-01-22T14:51:15.489Z,15.20
2023-01-22T14:56:17.550Z,15.90
2023-01-22T15:01:21.466Z,15.20
2023-01-22T15:06:23.924Z,19.90
2023-01-22T15:11:25.756Z,14.65
2023-01-22T15:16:27.661Z,19.40
2023-01-22T15:21:29.432Z,25.43
2023-01-22T15:26:35.228Z,17.77
2023-01-22T15:31:37.592Z,20.83
2023-01-22T15:36:41.941Z,17.85
2023-01-22T15:41:44.084Z,20.63
2023-01-22T15:46:46.291Z,22.67
2023-01-22T15:51:48.120Z,25.20
2023-01-22T15:56:50.003Z,22.20
2023-01-22T16:01:52.512Z,19.65
2023-01-22T16:06:54.219Z,18.98
2023-01-22T16:11:57.313Z,19.55
2023-01-22T16:16:59.052Z,18.60
2023-01-22T16:22:00.815Z,18.17
2023-01-22T16:27:02.466Z,19.23
2023-01-22T16:32:04.499Z,19.30
2023-01-22T16:37:06.515Z,20.67
2023-01-22T16:42:08.354Z,25.35
2023-01-22T16:47:10.407Z,20.67
2023-01-22T16:52:22.511Z,21.53
2023-01-22T16:57:25.007Z,16.23
2023-01-22T17:02:26.782Z,17.40
2023-01-22T17:07:34.067Z,19.00
2023-01-22T17:12:36.292Z,19.25
2023-01-22T17:17:38.120Z,20.20
2023-01-22T17:22:40.019Z,18.07
2023-01-22T17:27:41.829Z,21.17
2023-01-22T17:32:43.950Z,21.83
2023-01-22T17:37:45.942Z,21.83
2023-01-22T17:42:47.739Z,23.67
2023-01-22T17:47:49.517Z,19.57
2023-01-22T17:52:51.904Z,21.98
2023-01-22T17:57:54.944Z,25.95
2023-01-22T18:02:57.414Z,24.60
2023-01-22T18:07:59.249Z,24.33
2023-01-22T18:13:00.915Z,24.80
2023-01-22T18:18:02.844Z,22.40
2023-01-22T18:23:04.579Z,22.03
2023-01-22T18:28:06.262Z,27.13
2023-01-22T18:33:10.035Z,28.57
2023-01-22T18:38:12.240Z,24.85
2023-01-22T18:43:13.963Z,25.55
2023-01-22T18:48:16.264Z,28.17
2023-01-22T18:53:18.076Z,21.80
2023-01-22T18:58:33.917Z,19.83
2023-01-22T19:03:36.225Z,13.32
2023-01-22T19:08:39.334Z,23.05
2023-01-22T19:13:44.785Z,25.90
2023-01-22T19:18:46.737Z,19.98
2023-01-22T19:23:50.999Z,18.52
2023-01-22T19:28:58.560Z,17.55
2023-01-22T19:34:01.275Z,23.38
2023-01-22T19:44:09.095Z,13.20
2023-01-22T19:49:12.877Z,15.38
2023-01-22T19:54:14.669Z,19.30
2023-01-22T19:59:20.267Z,17.53
2023-01-22T20:04:29.720Z,20.60
2023-01-22T20:09:33.146Z,20.35
2023-01-22T20:14:39.008Z,19.50
2023-01-22T20:19:42.104Z,19.05
2023-01-22T20:24:44.023Z,19.58
2023-01-22T20:29:45.766Z,20.13
2023-01-22T20:34:48.913Z,18.17
2023-01-22T20:39:50.693Z,18.33
2023-01-22T20:44:52.421Z,20.13
2023-01-22T20:49:54.205Z,19.60
2023-01-22T20:55:01.830Z,17.10
2023-01-22T21:00:05.375Z,16.23
2023-01-22T21:05:08.233Z,16.75
2023-01-22T21:10:10.712Z,15.50
2023-01-22T21:15:12.519Z,18.73
2023-01-22T21:20:14.939Z,19.20
2023-01-22T21:25:17.068Z,18.88
2023-01-22T21:30:19.147Z,18.33
2023-01-22T21:35:21.503Z,19.98
2023-01-22T21:40:23.171Z,17.75
2023-01-22T21:45:43.619Z,20.92
2023-01-22T21:50:45.419Z,21.77
2023-01-22T21:55:53.595Z,18.37
2023-01-22T22:00:55.630Z,18.15
2023-01-22T22:06:02.005Z,20.60
2023-01-22T22:11:04.583Z,20.73
2023-01-22T22:16:08.024Z,18.85
2023-01-22T22:21:10.498Z,21.55
2023-01-22T22:26:12.201Z,19.60
2023-01-22T22:31:15.840Z,18.97
2023-01-22T22:36:20.394Z,19.42
2023-01-22T22:41:24.306Z,20.65
2023-01-22T22:46:34.393Z,18.02
2023-01-22T22:51:38.735Z,17.65
2023-01-22T22:56:40.516Z,21.63
2023-01-22T23:01:42.733Z,23.25
2023-01-22T23:06:45.410Z,17.33
2023-01-22T23:11:51.451Z,22.70
2023-01-22T23:16:53.384Z,21.55
2023-01-22T23:21:57.679Z,20.80
2023-01-22T23:26:59.540Z,20.35
2023-01-22T23:32:01.383Z,21.30
2023-01-22T23:37:03.089Z,19.77
2023-01-22T23:42:04.724Z,20.67
2023-01-22T23:47:06.540Z,21.70
2023-01-22T23:52:08.201Z,20.03
2023-01-22T23:57:10.133Z,21.27
